sensor_id;sensor_type;location;lat;lon;timestamp;pressure;altitude;pressure_sealevel;temperature;humidity
60417;BME280;46263;44.726;10.396;2023-02-21T00:01:57;101278.47;;;11.54;63.69
60417;BME280;46263;44.726;10.396;2023-02-21T00:04:41;101273.84;;;11.51;63.47
60417;BME280;46263;44.726;10.396;2023-02-21T00:07:44;101270.56;;;11.52;63.90
60417;BME280;46263;44.726;10.396;2023-02-21T00:10:28;101274.16;;;11.58;63.18
60417;BME280;46263;44.726;10.396;2023-02-21T00:13:12;101271.59;;;11.55;63.49
60417;BME280;46263;44.726;10.396;2023-02-21T00:16:02;101267.22;;;11.43;63.74
60417;BME280;46263;44.726;10.396;2023-02-21T00:22:21;101260.06;;;11.20;63.62
60417;BME280;46263;44.726;10.396;2023-02-21T00:25:05;101265.38;;;11.18;64.12
60417;BME280;46263;44.726;10.396;2023-02-21T00:27:49;101261.31;;;11.19;63.92
60417;BME280;46263;44.726;10.396;2023-02-21T00:30:33;101255.50;;;11.28;64.19
60417;BME280;46263;44.726;10.396;2023-02-21T00:33:17;101255.00;;;11.35;63.34
60417;BME280;46263;44.726;10.396;2023-02-21T00:36:01;101253.22;;;11.37;63.63
60417;BME280;46263;44.726;10.396;2023-02-21T00:38:45;101257.28;;;11.42;63.24
60417;BME280;46263;44.726;10.396;2023-02-21T00:41:51;101239.50;;;11.45;63.36
60417;BME280;46263;44.726;10.396;2023-02-21T00:44:35;101240.00;;;11.49;63.29
60417;BME280;46263;44.726;10.396;2023-02-21T00:47:18;101246.91;;;11.53;63.18
60417;BME280;46263;44.726;10.396;2023-02-21T00:50:02;101246.38;;;11.49;63.44
60417;BME280;46263;44.726;10.396;2023-02-21T00:52:46;101247.13;;;11.50;63.28
60417;BME280;46263;44.726;10.396;2023-02-21T00:55:30;101239.25;;;11.48;63.25
60417;BME280;46263;44.726;10.396;2023-02-21T00:58:14;101243.56;;;11.44;62.75
60417;BME280;46263;44.726;10.396;2023-02-21T01:00:58;101236.44;;;11.48;63.08
60417;BME280;46263;44.726;10.396;2023-02-21T01:04:07;101239.28;;;11.54;63.05
60417;BME280;46263;44.726;10.396;2023-02-21T01:06:51;101239.28;;;11.54;62.94
60417;BME280;46263;44.726;10.396;2023-02-21T01:09:35;101232.09;;;11.47;63.25
60417;BME280;46263;44.726;10.396;2023-02-21T01:12:30;101233.91;;;11.45;62.79
60417;BME280;46263;44.726;10.396;2023-02-21T01:15:14;101227.50;;;11.44;62.63
60417;BME280;46263;44.726;10.396;2023-02-21T01:17:58;101226.00;;;11.38;62.89
60417;BME280;46263;44.726;10.396;2023-02-21T01:20:42;101224.47;;;11.31;62.92
60417;BME280;46263;44.726;10.396;2023-02-21T01:23:26;101224.97;;;11.35;62.53
60417;BME280;46263;44.726;10.396;2023-02-21T01:26:10;101221.69;;;11.37;62.87
60417;BME280;46263;44.726;10.396;2023-02-21T01:28:54;101217.84;;;11.40;62.85
60417;BME280;46263;44.726;10.396;2023-02-21T01:31:48;101218.88;;;11.42;62.79
60417;BME280;46263;44.726;10.396;2023-02-21T01:34:32;101217.59;;;11.38;62.98
60417;BME280;46263;44.726;10.396;2023-02-21T01:37:16;101217.09;;;11.34;62.46
60417;BME280;46263;44.726;10.396;2023-02-21T01:40:00;101215.06;;;11.29;62.63
60417;BME280;46263;44.726;10.396;2023-02-21T01:42:44;101215.56;;;11.22;63.02
60417;BME280;46263;44.726;10.396;2023-02-21T01:48:18;101209.91;;;11.06;62.79
60417;BME280;46263;44.726;10.396;2023-02-21T01:51:04;101204.84;;;11.04;62.87
60417;BME280;46263;44.726;10.396;2023-02-21T01:53:50;101204.34;;;11.11;63.02
60417;BME280;46263;44.726;10.396;2023-02-21T01:56:35;101202.81;;;11.10;63.14
60417;BME280;46263;44.726;10.396;2023-02-21T01:59:21;101206.09;;;11.03;63.61
60417;BME280;46263;44.726;10.396;2023-02-21T02:02:12;101195.69;;;10.98;63.83
60417;BME280;46263;44.726;10.396;2023-02-21T02:04:59;101201.72;;;10.80;64.45
60417;BME280;46263;44.726;10.396;2023-02-21T02:07:43;101199.94;;;10.77;64.38
60417;BME280;46263;44.726;10.396;2023-02-21T02:10:27;101199.66;;;10.75;63.96
60417;BME280;46263;44.726;10.396;2023-02-21T02:28:16;101178.59;;;10.80;63.30
60417;BME280;46263;44.726;10.396;2023-02-21T02:36:50;101173.72;;;10.69;62.91
60417;BME280;46263;44.726;10.396;2023-02-21T02:44:37;101166.34;;;10.61;62.78
60417;BME280;46263;44.726;10.396;2023-02-21T02:47:16;101172.66;;;10.50;63.23
60417;BME280;46263;44.726;10.396;2023-02-21T02:49:44;101162.50;;;10.47;63.55
60417;BME280;46263;44.726;10.396;2023-02-21T02:55:45;101162.44;;;10.36;62.97
60417;BME280;46263;44.726;10.396;2023-02-21T02:58:13;101160.44;;;10.37;63.08
60417;BME280;46263;44.726;10.396;2023-02-21T03:00:44;101160.91;;;10.35;63.17
60417;BME280;46263;44.726;10.396;2023-02-21T03:09:17;101167.50;;;10.27;63.74
60417;BME280;46263;44.726;10.396;2023-02-21T03:12:00;101155.53;;;10.27;63.79
60417;BME280;46263;44.726;10.396;2023-02-21T03:14:40;101156.03;;;10.25;63.95
60417;BME280;46263;44.726;10.396;2023-02-21T03:17:12;101152.00;;;10.26;63.62
60417;BME280;46263;44.726;10.396;2023-02-21T03:19:43;101153.53;;;10.32;63.94
60417;BME280;46263;44.726;10.396;2023-02-21T03:22:17;101150.25;;;10.34;63.84
60417;BME280;46263;44.726;10.396;2023-02-21T03:24:45;101149.72;;;10.35;63.57
60417;BME280;46263;44.726;10.396;2023-02-21T03:27:12;101150.50;;;10.36;63.78
60417;BME280;46263;44.726;10.396;2023-02-21T03:29:40;101155.31;;;10.35;64.08
60417;BME280;46263;44.726;10.396;2023-02-21T03:35:00;101150.28;;;10.39;63.77
60417;BME280;46263;44.726;10.396;2023-02-21T03:37:32;101149.75;;;10.41;63.33
60417;BME280;46263;44.726;10.396;2023-02-21T03:40:54;101155.06;;;10.33;63.09
60417;BME280;46263;44.726;10.396;2023-02-21T03:43:20;101153.22;;;10.20;63.44
60417;BME280;46263;44.726;10.396;2023-02-21T03:45:45;101157.53;;;10.21;63.72
60417;BME280;46263;44.726;10.396;2023-02-21T03:48:11;101151.69;;;10.19;63.30
60417;BME280;46263;44.726;10.396;2023-02-21T03:50:36;101149.66;;;10.14;63.06
60417;BME280;46263;44.726;10.396;2023-02-21T03:53:02;101148.88;;;10.08;62.92
60417;BME280;46263;44.726;10.396;2023-02-21T03:55:28;101151.28;;;9.95;63.28
60417;BME280;46263;44.726;10.396;2023-02-21T03:57:53;101154.06;;;9.95;63.54
60417;BME280;46263;44.726;10.396;2023-02-21T04:00:28;101148.50;;;9.95;63.45
60417;BME280;46263;44.726;10.396;2023-02-21T04:02:54;101145.00;;;10.00;63.32
60417;BME280;46263;44.726;10.396;2023-02-21T04:05:19;101156.59;;;9.87;63.34
60417;BME280;46263;44.726;10.396;2023-02-21T04:07:45;101156.81;;;9.84;63.22
60417;BME280;46263;44.726;10.396;2023-02-21T04:10:10;101155.03;;;9.81;63.66
60417;BME280;46263;44.726;10.396;2023-02-21T04:12:36;101154.22;;;9.75;63.64
60417;BME280;46263;44.726;10.396;2023-02-21T04:15:01;101156.28;;;9.80;63.47
60417;BME280;46263;44.726;10.396;2023-02-21T04:17:27;101156.56;;;9.82;63.83
60417;BME280;46263;44.726;10.396;2023-02-21T04:19:52;101157.75;;;9.75;64.35
60417;BME280;46263;44.726;10.396;2023-02-21T04:22:18;101154.50;;;9.77;64.40
60417;BME280;46263;44.726;10.396;2023-02-21T04:25:02;101158.31;;;9.79;64.00
60417;BME280;46263;44.726;10.396;2023-02-21T04:27:27;101162.13;;;9.82;64.06
60417;BME280;46263;44.726;10.396;2023-02-21T04:29:53;101163.59;;;9.72;64.54
60417;BME280;46263;44.726;10.396;2023-02-21T04:32:18;101160.50;;;9.70;63.63
60417;BME280;46263;44.726;10.396;2023-02-21T04:34:44;101159.00;;;9.69;63.31
60417;BME280;46263;44.726;10.396;2023-02-21T04:37:09;101153.16;;;9.67;63.13
60417;BME280;46263;44.726;10.396;2023-02-21T04:39:34;101156.69;;;9.67;63.29
60417;BME280;46263;44.726;10.396;2023-02-21T04:42:00;101157.41;;;9.57;63.59
60417;BME280;46263;44.726;10.396;2023-02-21T04:44:25;101156.66;;;9.56;63.84
60417;BME280;46263;44.726;10.396;2023-02-21T04:47:13;101149.59;;;9.66;63.55
60417;BME280;46263;44.726;10.396;2023-02-21T04:49:38;101152.38;;;9.66;63.45
60417;BME280;46263;44.726;10.396;2023-02-21T04:52:03;101151.13;;;9.67;63.20
60417;BME280;46263;44.726;10.396;2023-02-21T04:54:29;101143.72;;;9.59;63.14
60417;BME280;46263;44.726;10.396;2023-02-21T04:56:54;101142.94;;;9.58;63.62
60417;BME280;46263;44.726;10.396;2023-02-21T04:59:20;101149.03;;;9.57;63.22
60417;BME280;46263;44.726;10.396;2023-02-21T05:05:02;101136.22;;;9.40;63.10
60417;BME280;46263;44.726;10.396;2023-02-21T05:07:28;101145.28;;;9.35;63.52
60417;BME280;46263;44.726;10.396;2023-02-21T05:09:53;101135.69;;;9.36;63.62
60417;BME280;46263;44.726;10.396;2023-02-21T05:12:19;101133.91;;;9.33;63.56
60417;BME280;46263;44.726;10.396;2023-02-21T05:14:44;101127.25;;;9.30;63.78
60417;BME280;46263;44.726;10.396;2023-02-21T05:17:10;101123.22;;;9.31;63.49
60417;BME280;46263;44.726;10.396;2023-02-21T05:19:48;101134.09;;;9.29;63.93
60417;BME280;46263;44.726;10.396;2023-02-21T05:22:14;101129.56;;;9.32;63.51
60417;BME280;46263;44.726;10.396;2023-02-21T05:24:44;101127.50;;;9.27;64.07
60417;BME280;46263;44.726;10.396;2023-02-21T05:27:11;101128.72;;;9.20;64.04
60417;BME280;46263;44.726;10.396;2023-02-21T05:29:41;101114.19;;;9.11;64.73
60417;BME280;46263;44.726;10.396;2023-02-21T05:32:21;101117.28;;;9.18;64.68
60417;BME280;46263;44.726;10.396;2023-02-21T05:34:47;101115.22;;;9.13;65.02
60417;BME280;46263;44.726;10.396;2023-02-21T05:37:16;101115.94;;;9.08;65.53
60417;BME280;46263;44.726;10.396;2023-02-21T05:39:45;101117.38;;;8.98;65.90
60417;BME280;46263;44.726;10.396;2023-02-21T05:42:31;101112.00;;;8.95;65.86
60417;BME280;46263;44.726;10.396;2023-02-21T05:45:09;101111.47;;;8.91;65.94
60417;BME280;46263;44.726;10.396;2023-02-21T05:47:35;101110.97;;;8.92;66.10
60417;BME280;46263;44.726;10.396;2023-02-21T05:50:02;101106.78;;;9.02;65.74
60417;BME280;46263;44.726;10.396;2023-02-21T05:52:28;101111.91;;;9.09;65.25
60417;BME280;46263;44.726;10.396;2023-02-21T05:54:53;101108.38;;;9.14;65.25
60417;BME280;46263;44.726;10.396;2023-02-21T05:57:19;101106.09;;;9.13;64.92
60417;BME280;46263;44.726;10.396;2023-02-21T05:59:45;101109.38;;;9.11;65.10
60417;BME280;46263;44.726;10.396;2023-02-21T06:02:37;101105.88;;;9.16;64.91
60417;BME280;46263;44.726;10.396;2023-02-21T06:05:02;101112.66;;;9.10;65.22
60417;BME280;46263;44.726;10.396;2023-02-21T06:07:28;101113.25;;;9.19;64.41
60417;BME280;46263;44.726;10.396;2023-02-21T06:09:53;101099.22;;;9.08;64.73
60417;BME280;46263;44.726;10.396;2023-02-21T06:12:19;101109.38;;;9.11;65.03
60417;BME280;46263;44.726;10.396;2023-02-21T06:14:44;101108.16;;;9.18;64.61
60417;BME280;46263;44.726;10.396;2023-02-21T06:17:09;101125.44;;;9.22;64.39
60417;BME280;46263;44.726;10.396;2023-02-21T06:19:35;101114.81;;;9.26;64.43
60417;BME280;46263;44.726;10.396;2023-02-21T06:22:07;101112.00;;;9.26;64.29
60417;BME280;46263;44.726;10.396;2023-02-21T06:24:32;101111.53;;;9.27;64.41
60417;BME280;46263;44.726;10.396;2023-02-21T06:26:57;101120.97;;;9.35;63.99
60417;BME280;46263;44.726;10.396;2023-02-21T06:29:35;101122.97;;;9.35;64.07
60417;BME280;46263;44.726;10.396;2023-02-21T06:32:00;101116.19;;;9.41;64.04
60417;BME280;46263;44.726;10.396;2023-02-21T06:34:27;101124.28;;;9.39;63.76
60417;BME280;46263;44.726;10.396;2023-02-21T06:36:53;101128.88;;;9.42;63.57
60417;BME280;46263;44.726;10.396;2023-02-21T06:39:19;101137.44;;;9.33;63.62
60417;BME280;46263;44.726;10.396;2023-02-21T06:44:51;101137.16;;;9.31;63.87
60417;BME280;46263;44.726;10.396;2023-02-21T06:47:23;101136.75;;;9.44;63.87
60417;BME280;46263;44.726;10.396;2023-02-21T06:49:49;101136.00;;;9.43;63.81
60417;BME280;46263;44.726;10.396;2023-02-21T06:52:14;101138.56;;;9.47;63.87
60417;BME280;46263;44.726;10.396;2023-02-21T06:54:40;101138.56;;;9.47;63.79
60417;BME280;46263;44.726;10.396;2023-02-21T06:57:06;101137.59;;;9.55;63.73
60417;BME280;46263;44.726;10.396;2023-02-21T06:59:44;101143.69;;;9.53;63.92
60417;BME280;46263;44.726;10.396;2023-02-21T07:02:19;101140.38;;;9.55;64.10
60417;BME280;46263;44.726;10.396;2023-02-21T07:04:45;101140.16;;;9.58;64.36
60417;BME280;46263;44.726;10.396;2023-02-21T07:07:11;101135.88;;;9.63;63.90
60417;BME280;46263;44.726;10.396;2023-02-21T07:09:37;101135.16;;;9.68;64.04
60417;BME280;46263;44.726;10.396;2023-02-21T07:12:02;101140.50;;;9.71;63.57
60417;BME280;46263;44.726;10.396;2023-02-21T07:14:28;101144.56;;;9.70;63.54
60417;BME280;46263;44.726;10.396;2023-02-21T07:16:53;101153.44;;;9.74;63.13
60417;BME280;46263;44.726;10.396;2023-02-21T07:19:19;101153.91;;;9.67;63.57
60417;BME280;46263;44.726;10.396;2023-02-21T07:21:44;101151.91;;;9.68;63.47
60417;BME280;46263;44.726;10.396;2023-02-21T07:24:10;101152.88;;;9.65;63.64
60417;BME280;46263;44.726;10.396;2023-02-21T07:26:36;101155.63;;;9.59;63.78
60417;BME280;46263;44.726;10.396;2023-02-21T07:29:03;101152.38;;;9.61;63.88
60417;BME280;46263;44.726;10.396;2023-02-21T07:31:31;101160.91;;;9.52;63.98
60417;BME280;46263;44.726;10.396;2023-02-21T07:33:56;101152.09;;;9.59;64.14
60417;BME280;46263;44.726;10.396;2023-02-21T07:36:22;101160.00;;;9.66;64.35
60417;BME280;46263;44.726;10.396;2023-02-21T07:38:48;101156.47;;;9.71;64.47
60417;BME280;46263;44.726;10.396;2023-02-21T07:41:16;101154.97;;;9.75;64.77
60417;BME280;46263;44.726;10.396;2023-02-21T07:44:03;101157.31;;;9.82;64.98
60417;BME280;46263;44.726;10.396;2023-02-21T07:46:29;101167.22;;;9.83;65.35
60417;BME280;46263;44.726;10.396;2023-02-21T07:48:55;101161.97;;;9.96;65.86
60417;BME280;46263;44.726;10.396;2023-02-21T07:51:20;101160.50;;;10.06;66.07
60417;BME280;46263;44.726;10.396;2023-02-21T07:53:46;101158.81;;;10.20;65.90
60417;BME280;46263;44.726;10.396;2023-02-21T07:56:12;101161.41;;;10.34;66.25
60417;BME280;46263;44.726;10.396;2023-02-21T07:58:37;101160.69;;;10.44;66.46
60417;BME280;46263;44.726;10.396;2023-02-21T08:01:04;101164.75;;;10.43;67.95
60417;BME280;46263;44.726;10.396;2023-02-21T08:03:30;101166.06;;;10.53;67.79
60417;BME280;46263;44.726;10.396;2023-02-21T08:05:57;101168.88;;;10.59;68.19
60417;BME280;46263;44.726;10.396;2023-02-21T08:08:23;101165.31;;;10.64;68.33
60417;BME280;46263;44.726;10.396;2023-02-21T08:10:56;101167.88;;;10.67;68.49
60417;BME280;46263;44.726;10.396;2023-02-21T08:13:21;101159.25;;;10.76;68.59
60417;BME280;46263;44.726;10.396;2023-02-21T08:15:47;101163.09;;;10.84;68.51
60417;BME280;46263;44.726;10.396;2023-02-21T08:18:18;101162.84;;;10.82;69.39
60417;BME280;46263;44.726;10.396;2023-02-21T08:20:46;101165.41;;;10.97;69.24
60417;BME280;46263;44.726;10.396;2023-02-21T08:23:18;101157.53;;;10.95;69.54
60417;BME280;46263;44.726;10.396;2023-02-21T08:25:45;101160.09;;;11.04;69.82
60417;BME280;46263;44.726;10.396;2023-02-21T08:28:11;101161.59;;;11.00;70.48
60417;BME280;46263;44.726;10.396;2023-02-21T08:30:36;101153.47;;;11.02;71.40
60417;BME280;46263;44.726;10.396;2023-02-21T08:33:02;101150.41;;;11.16;70.56
60417;BME280;46263;44.726;10.396;2023-02-21T08:35:43;101155.78;;;11.30;70.55
60417;BME280;46263;44.726;10.396;2023-02-21T08:38:08;101154.25;;;11.46;70.10
60417;BME280;46263;44.726;10.396;2023-02-21T08:40:34;101150.41;;;11.49;70.69
60417;BME280;46263;44.726;10.396;2023-02-21T08:43:00;101156.53;;;11.64;69.71
60417;BME280;46263;44.726;10.396;2023-02-21T08:45:27;101153.22;;;11.49;70.57
60417;BME280;46263;44.726;10.396;2023-02-21T08:47:53;101156.81;;;11.66;69.95
60417;BME280;46263;44.726;10.396;2023-02-21T08:50:21;101156.28;;;11.78;70.59
60417;BME280;46263;44.726;10.396;2023-02-21T08:52:48;101157.00;;;11.90;70.82
60417;BME280;46263;44.726;10.396;2023-02-21T08:55:15;101158.25;;;11.99;72.16
60417;BME280;46263;44.726;10.396;2023-02-21T08:57:41;101160.53;;;12.12;70.39
60417;BME280;46263;44.726;10.396;2023-02-21T09:00:14;101160.53;;;12.12;70.52
60417;BME280;46263;44.726;10.396;2023-02-21T09:02:40;101164.59;;;12.16;71.37
60417;BME280;46263;44.726;10.396;2023-02-21T09:05:17;101166.59;;;12.21;70.38
60417;BME280;46263;44.726;10.396;2023-02-21T09:07:43;101157.91;;;12.30;69.71
60417;BME280;46263;44.726;10.396;2023-02-21T09:10:11;101170.91;;;12.28;70.30
60417;BME280;46263;44.726;10.396;2023-02-21T09:12:37;101172.91;;;12.33;70.08
60417;BME280;46263;44.726;10.396;2023-02-21T09:15:03;101167.31;;;12.33;70.33
60417;BME280;46263;44.726;10.396;2023-02-21T09:17:29;101162.97;;;12.37;70.27
60417;BME280;46263;44.726;10.396;2023-02-21T09:20:03;101162.75;;;12.30;70.28
60417;BME280;46263;44.726;10.396;2023-02-21T09:22:29;101164.00;;;12.34;70.70
60417;BME280;46263;44.726;10.396;2023-02-21T09:24:56;101159.66;;;12.39;70.42
60417;BME280;46263;44.726;10.396;2023-02-21T09:27:22;101160.88;;;12.49;70.24
60417;BME280;46263;44.726;10.396;2023-02-21T09:30:02;101167.75;;;12.53;70.21
60417;BME280;46263;44.726;10.396;2023-02-21T09:32:28;101160.09;;;12.59;69.94
60417;BME280;46263;44.726;10.396;2023-02-21T09:34:54;101160.81;;;12.65;69.29
60417;BME280;46263;44.726;10.396;2023-02-21T09:37:19;101157.75;;;12.63;70.04
60417;BME280;46263;44.726;10.396;2023-02-21T09:39:45;101158.03;;;12.60;69.90
60417;BME280;46263;44.726;10.396;2023-02-21T09:42:15;101155.94;;;12.66;69.71
60417;BME280;46263;44.726;10.396;2023-02-21T09:44:42;101158.97;;;12.73;69.59
60417;BME280;46263;44.726;10.396;2023-02-21T09:47:14;101153.31;;;12.84;69.26
60417;BME280;46263;44.726;10.396;2023-02-21T09:49:43;101161.94;;;12.97;69.04
60417;BME280;46263;44.726;10.396;2023-02-21T09:52:20;101150.63;;;13.08;68.93
60417;BME280;46263;44.726;10.396;2023-02-21T09:54:55;101159.25;;;13.15;68.79
60417;BME280;46263;44.726;10.396;2023-02-21T09:57:21;101148.44;;;13.25;68.04
60417;BME280;46263;44.726;10.396;2023-02-21T09:59:48;101155.69;;;13.15;67.82
60417;BME280;46263;44.726;10.396;2023-02-21T10:05:20;101146.59;;;13.33;67.14
60417;BME280;46263;44.726;10.396;2023-02-21T10:13:34;101145.56;;;13.36;66.29
60417;BME280;46263;44.726;10.396;2023-02-21T10:16:13;101146.50;;;13.44;66.30
60417;BME280;46263;44.726;10.396;2023-02-21T10:21:40;101141.84;;;13.75;66.02
60417;BME280;46263;44.726;10.396;2023-02-21T10:24:11;101138.75;;;13.79;65.69
60417;BME280;46263;44.726;10.396;2023-02-21T10:26:37;101137.59;;;13.93;64.90
60417;BME280;46263;44.726;10.396;2023-02-21T10:29:34;101137.16;;;14.07;64.35
60417;BME280;46263;44.726;10.396;2023-02-21T10:32:02;101140.72;;;14.13;64.40
60417;BME280;46263;44.726;10.396;2023-02-21T10:34:30;101132.50;;;14.15;64.97
60417;BME280;46263;44.726;10.396;2023-02-21T10:42:46;101125.72;;;14.29;63.98
60417;BME280;46263;44.726;10.396;2023-02-21T10:45:17;101118.19;;;14.37;63.07
60417;BME280;46263;44.726;10.396;2023-02-21T10:47:55;101115.16;;;14.53;63.66
60417;BME280;46263;44.726;10.396;2023-02-21T10:53:39;101115.53;;;14.81;63.31
60417;BME280;46263;44.726;10.396;2023-02-21T10:56:14;101109.72;;;14.92;62.25
60417;BME280;46263;44.726;10.396;2023-02-21T10:58:52;101107.28;;;15.02;62.16
60417;BME280;46263;44.726;10.396;2023-02-21T11:04:27;101099.19;;;15.11;62.08
60417;BME280;46263;44.726;10.396;2023-02-21T11:06:57;101091.56;;;15.24;62.19
60417;BME280;46263;44.726;10.396;2023-02-21T11:17:21;101071.69;;;15.48;61.81
60417;BME280;46263;44.726;10.396;2023-02-21T11:25:45;101057.63;;;15.74;60.56
60417;BME280;46263;44.726;10.396;2023-02-21T11:30:48;101056.94;;;15.94;60.01
60417;BME280;46263;44.726;10.396;2023-02-21T11:33:19;101051.75;;;15.98;59.14
60417;BME280;46263;44.726;10.396;2023-02-21T11:35:47;101039.81;;;16.05;60.31
60417;BME280;46263;44.726;10.396;2023-02-21T11:38:38;101037.66;;;15.98;59.70
60417;BME280;46263;44.726;10.396;2023-02-21T11:41:35;101031.69;;;15.89;59.40
60417;BME280;46263;44.726;10.396;2023-02-21T11:44:01;101034.06;;;15.97;59.81
60417;BME280;46263;44.726;10.396;2023-02-21T11:49:19;101021.56;;;16.19;58.91
60417;BME280;46263;44.726;10.396;2023-02-21T11:51:55;101022.97;;;16.25;58.95
60417;BME280;46263;44.726;10.396;2023-02-21T11:54:27;101017.41;;;16.33;58.18
60417;BME280;46263;44.726;10.396;2023-02-21T12:00:25;101000.25;;;16.44;57.23
60417;BME280;46263;44.726;10.396;2023-02-21T12:06:07;100990.00;;;16.54;57.87
60417;BME280;46263;44.726;10.396;2023-02-21T12:09:00;100991.59;;;16.62;58.26
60417;BME280;46263;44.726;10.396;2023-02-21T12:11:56;100988.28;;;16.71;56.69
60417;BME280;46263;44.726;10.396;2023-02-21T12:23:25;100976.88;;;16.77;57.31
60417;BME280;46263;44.726;10.396;2023-02-21T12:42:36;100961.06;;;17.01;57.01
60417;BME280;46263;44.726;10.396;2023-02-21T12:45:34;100963.47;;;16.97;56.62
60417;BME280;46263;44.726;10.396;2023-02-21T12:47:50;100946.41;;;16.82;56.12
60417;BME280;46263;44.726;10.396;2023-02-21T12:50:21;100953.38;;;16.81;57.17
60417;BME280;46263;44.726;10.396;2023-02-21T12:52:56;100941.69;;;16.77;56.85
60417;BME280;46263;44.726;10.396;2023-02-21T12:55:45;100941.06;;;16.72;56.78
60417;BME280;46263;44.726;10.396;2023-02-21T13:01:26;100923.50;;;16.66;57.18
60417;BME280;46263;44.726;10.396;2023-02-21T13:03:55;100919.84;;;16.58;57.19
60417;BME280;46263;44.726;10.396;2023-02-21T13:06:28;100922.66;;;16.58;57.06
60417;BME280;46263;44.726;10.396;2023-02-21T13:09:30;100915.31;;;16.55;57.80
60417;BME280;46263;44.726;10.396;2023-02-21T13:12:05;100909.03;;;16.49;57.40
60417;BME280;46263;44.726;10.396;2023-02-21T13:14:44;100914.28;;;16.45;57.76
60417;BME280;46263;44.726;10.396;2023-02-21T13:17:15;100900.78;;;16.51;58.01
60417;BME280;46263;44.726;10.396;2023-02-21T13:19:45;100895.22;;;16.58;57.64
60417;BME280;46263;44.726;10.396;2023-02-21T13:28:16;100886.16;;;16.80;56.94
60417;BME280;46263;44.726;10.396;2023-02-21T13:30:50;100886.53;;;16.77;57.52
60417;BME280;46263;44.726;10.396;2023-02-21T13:39:10;100891.56;;;16.71;57.37
60417;BME280;46263;44.726;10.396;2023-02-21T13:41:42;100878.69;;;16.62;57.46
60417;BME280;46263;44.726;10.396;2023-02-21T13:44:18;100881.50;;;16.62;57.01
60417;BME280;46263;44.726;10.396;2023-02-21T14:10:43;100853.38;;;16.77;58.39
60417;BME280;46263;44.726;10.396;2023-02-21T14:15:50;100848.72;;;16.79;57.50
60417;BME280;46263;44.726;10.396;2023-02-21T14:18:26;100834.41;;;16.77;57.48
60417;BME280;46263;44.726;10.396;2023-02-21T14:20:53;100838.09;;;16.73;56.94
60417;BME280;46263;44.726;10.396;2023-02-21T14:23:22;100837.56;;;16.74;57.58
60417;BME280;46263;44.726;10.396;2023-02-21T14:26:00;100832.47;;;16.73;57.66
60417;BME280;46263;44.726;10.396;2023-02-21T14:34:22;100830.56;;;16.68;56.42
60417;BME280;46263;44.726;10.396;2023-02-21T14:36:49;100824.69;;;16.66;56.10
60417;BME280;46263;44.726;10.396;2023-02-21T14:39:16;100834.28;;;16.63;55.67
60417;BME280;46263;44.726;10.396;2023-02-21T14:44:30;100814.13;;;16.59;55.31
60417;BME280;46263;44.726;10.396;2023-02-21T14:53:03;100815.03;;;16.54;55.83
60417;BME280;46263;44.726;10.396;2023-02-21T14:55:49;100815.56;;;16.52;55.27
60417;BME280;46263;44.726;10.396;2023-02-21T15:01:04;100816.56;;;16.55;54.73
60417;BME280;46263;44.726;10.396;2023-02-21T15:03:43;100816.56;;;16.55;55.30
60417;BME280;46263;44.726;10.396;2023-02-21T15:06:13;100808.63;;;16.53;54.75
60417;BME280;46263;44.726;10.396;2023-02-21T15:08:45;100808.97;;;16.50;55.07
60417;BME280;46263;44.726;10.396;2023-02-21T15:11:22;100809.88;;;16.45;55.72
60417;BME280;46263;44.726;10.396;2023-02-21T15:14:24;100797.28;;;16.46;55.45
60417;BME280;46263;44.726;10.396;2023-02-21T15:17:10;100805.13;;;16.40;55.28
60417;BME280;46263;44.726;10.396;2023-02-21T15:19:36;100795.00;;;16.44;55.76
60417;BME280;46263;44.726;10.396;2023-02-21T15:22:22;100801.00;;;16.41;56.01
60417;BME280;46263;44.726;10.396;2023-02-21T15:27:32;100801.91;;;16.36;55.04
60417;BME280;46263;44.726;10.396;2023-02-21T15:30:12;100800.59;;;16.37;55.23
60417;BME280;46263;44.726;10.396;2023-02-21T15:32:38;100796.63;;;16.32;55.28
60417;BME280;46263;44.726;10.396;2023-02-21T15:35:05;100800.81;;;16.39;54.72
60417;BME280;46263;44.726;10.396;2023-02-21T15:37:37;100797.56;;;16.35;55.45
60417;BME280;46263;44.726;10.396;2023-02-21T15:40:10;100791.72;;;16.33;55.65
60417;BME280;46263;44.726;10.396;2023-02-21T15:42:41;100794.75;;;16.35;55.44
60417;BME280;46263;44.726;10.396;2023-02-21T15:45:16;100795.22;;;16.26;55.56
60417;BME280;46263;44.726;10.396;2023-02-21T15:47:43;100801.50;;;16.32;55.13
60417;BME280;46263;44.726;10.396;2023-02-21T15:52:45;100796.84;;;16.34;55.32
60417;BME280;46263;44.726;10.396;2023-02-21T15:55:14;100790.03;;;16.30;55.66
60417;BME280;46263;44.726;10.396;2023-02-21T15:57:40;100784.69;;;16.26;55.36
60417;BME280;46263;44.726;10.396;2023-02-21T16:03:50;100800.53;;;16.29;55.76
60417;BME280;46263;44.726;10.396;2023-02-21T16:08:51;100794.91;;;16.29;56.10
60417;BME280;46263;44.726;10.396;2023-02-21T16:11:17;100800.53;;;16.29;56.24
60417;BME280;46263;44.726;10.396;2023-02-21T16:13:44;100797.50;;;16.27;56.35
60417;BME280;46263;44.726;10.396;2023-02-21T16:16:10;100797.50;;;16.27;56.18
60417;BME280;46263;44.726;10.396;2023-02-21T16:18:35;100795.22;;;16.26;55.90
60417;BME280;46263;44.726;10.396;2023-02-21T16:21:04;100799.34;;;16.25;56.60
60417;BME280;46263;44.726;10.396;2023-02-21T16:23:37;100787.66;;;16.21;56.38
60417;BME280;46263;44.726;10.396;2023-02-21T16:28:35;100792.47;;;16.13;56.62
60417;BME280;46263;44.726;10.396;2023-02-21T16:31:02;100799.22;;;16.10;56.98